sensor_id;sensor_type;location;lat;lon;timestamp;P1;durP1;ratioP1;P2;durP2;ratioP2
11287;SDS011;5700;50.996;7.044;2022-09-16T00:01:41;4.93;;;1.60;;
11287;SDS011;5700;50.996;7.044;2022-09-16T00:04:42;6.47;;;1.63;;
11287;SDS011;5700;50.996;7.044;2022-09-16T00:07:45;4.80;;;1.50;;
11287;SDS011;5700;50.996;7.044;2022-09-16T00:10:46;3.30;;;1.60;;
11287;SDS011;5700;50.996;7.044;2022-09-16T00:13:48;2.25;;;1.27;;
11287;SDS011;5700;50.996;7.044;2022-09-16T00:16:49;4.15;;;1.40;;
11287;SDS011;5700;50.996;7.044;2022-09-16T00:19:50;7.30;;;1.35;;
11287;SDS011;5700;50.996;7.044;2022-09-16T00:22:54;5.38;;;1.13;;
11287;SDS011;5700;50.996;7.044;2022-09-16T00:25:55;1.85;;;0.88;;
11287;SDS011;5700;50.996;7.044;2022-09-16T00:28:56;1.65;;;1.05;;
11287;SDS011;5700;50.996;7.044;2022-09-16T00:31:58;2.30;;;0.73;;
11287;SDS011;5700;50.996;7.044;2022-09-16T00:34:59;1.23;;;0.70;;
11287;SDS011;5700;50.996;7.044;2022-09-16T00:38:02;2.28;;;0.90;;
11287;SDS011;5700;50.996;7.044;2022-09-16T00:41:03;4.88;;;1.05;;
11287;SDS011;5700;50.996;7.044;2022-09-16T00:44:06;1.55;;;0.60;;
11287;SDS011;5700;50.996;7.044;2022-09-16T00:47:43;2.75;;;0.95;;
11287;SDS011;5700;50.996;7.044;2022-09-16T00:50:47;4.78;;;1.38;;
11287;SDS011;5700;50.996;7.044;2022-09-16T00:53:54;3.15;;;1.30;;
11287;SDS011;5700;50.996;7.044;2022-09-16T00:56:59;6.45;;;1.45;;
11287;SDS011;5700;50.996;7.044;2022-09-16T01:00:03;3.88;;;1.20;;
11287;SDS011;5700;50.996;7.044;2022-09-16T01:03:06;3.72;;;1.52;;
11287;SDS011;5700;50.996;7.044;2022-09-16T01:06:08;3.28;;;1.10;;
11287;SDS011;5700;50.996;7.044;2022-09-16T01:09:11;4.63;;;1.20;;
11287;SDS011;5700;50.996;7.044;2022-09-16T01:12:12;2.15;;;1.17;;
11287;SDS011;5700;50.996;7.044;2022-09-16T01:15:14;4.10;;;1.20;;
11287;SDS011;5700;50.996;7.044;2022-09-16T01:18:18;6.80;;;1.20;;
11287;SDS011;5700;50.996;7.044;2022-09-16T01:21:24;5.55;;;1.25;;
11287;SDS011;5700;50.996;7.044;2022-09-16T01:24:42;3.83;;;1.17;;
11287;SDS011;5700;50.996;7.044;2022-09-16T01:27:53;3.28;;;0.85;;
11287;SDS011;5700;50.996;7.044;2022-09-16T01:31:06;1.88;;;1.25;;
11287;SDS011;5700;50.996;7.044;2022-09-16T01:34:12;3.20;;;0.90;;
11287;SDS011;5700;50.996;7.044;2022-09-16T01:37:19;2.72;;;1.10;;
11287;SDS011;5700;50.996;7.044;2022-09-16T01:40:26;4.72;;;1.08;;
11287;SDS011;5700;50.996;7.044;2022-09-16T01:43:34;3.10;;;0.90;;
11287;SDS011;5700;50.996;7.044;2022-09-16T01:46:42;3.60;;;1.15;;
11287;SDS011;5700;50.996;7.044;2022-09-16T01:49:50;4.93;;;1.20;;
11287;SDS011;5700;50.996;7.044;2022-09-16T01:52:59;3.15;;;1.13;;
11287;SDS011;5700;50.996;7.044;2022-09-16T01:56:06;3.05;;;1.30;;
11287;SDS011;5700;50.996;7.044;2022-09-16T01:59:10;3.92;;;1.10;;
11287;SDS011;5700;50.996;7.044;2022-09-16T02:02:16;6.22;;;1.05;;
11287;SDS011;5700;50.996;7.044;2022-09-16T02:05:21;4.88;;;1.17;;
11287;SDS011;5700;50.996;7.044;2022-09-16T02:08:28;2.38;;;0.80;;
11287;SDS011;5700;50.996;7.044;2022-09-16T02:11:32;6.03;;;1.05;;
11287;SDS011;5700;50.996;7.044;2022-09-16T02:14:34;3.60;;;1.17;;
11287;SDS011;5700;50.996;7.044;2022-09-16T02:17:42;2.08;;;0.80;;
11287;SDS011;5700;50.996;7.044;2022-09-16T02:20:45;3.25;;;1.20;;
11287;SDS011;5700;50.996;7.044;2022-09-16T02:23:49;4.63;;;1.10;;
11287;SDS011;5700;50.996;7.044;2022-09-16T02:26:55;2.63;;;1.13;;
11287;SDS011;5700;50.996;7.044;2022-09-16T02:30:00;5.75;;;1.60;;
11287;SDS011;5700;50.996;7.044;2022-09-16T02:33:06;4.18;;;1.20;;
11287;SDS011;5700;50.996;7.044;2022-09-16T02:36:10;4.30;;;1.10;;
11287;SDS011;5700;50.996;7.044;2022-09-16T02:39:15;4.47;;;1.33;;
11287;SDS011;5700;50.996;7.044;2022-09-16T02:42:19;6.70;;;1.27;;
11287;SDS011;5700;50.996;7.044;2022-09-16T02:45:21;3.63;;;1.17;;
11287;SDS011;5700;50.996;7.044;2022-09-16T02:48:27;3.05;;;1.20;;
11287;SDS011;5700;50.996;7.044;2022-09-16T02:51:32;4.10;;;1.40;;
11287;SDS011;5700;50.996;7.044;2022-09-16T02:54:39;4.80;;;0.90;;
11287;SDS011;5700;50.996;7.044;2022-09-16T02:57:45;3.13;;;1.17;;
11287;SDS011;5700;50.996;7.044;2022-09-16T03:00:47;4.63;;;1.23;;
11287;SDS011;5700;50.996;7.044;2022-09-16T03:03:51;3.80;;;1.17;;
11287;SDS011;5700;50.996;7.044;2022-09-16T03:06:54;4.30;;;1.08;;
11287;SDS011;5700;50.996;7.044;2022-09-16T03:09:56;5.55;;;1.30;;
11287;SDS011;5700;50.996;7.044;2022-09-16T03:12:59;3.22;;;0.98;;
11287;SDS011;5700;50.996;7.044;2022-09-16T03:16:06;4.00;;;1.10;;
11287;SDS011;5700;50.996;7.044;2022-09-16T03:19:13;7.45;;;1.35;;
11287;SDS011;5700;50.996;7.044;2022-09-16T03:22:20;3.20;;;1.17;;
11287;SDS011;5700;50.996;7.044;2022-09-16T03:25:31;5.03;;;1.60;;
11287;SDS011;5700;50.996;7.044;2022-09-16T03:28:41;1.95;;;1.45;;
11287;SDS011;5700;50.996;7.044;2022-09-16T03:31:46;4.35;;;1.30;;
11287;SDS011;5700;50.996;7.044;2022-09-16T03:34:53;3.50;;;1.13;;
11287;SDS011;5700;50.996;7.044;2022-09-16T03:37:57;7.55;;;1.60;;
11287;SDS011;5700;50.996;7.044;2022-09-16T03:41:00;5.22;;;1.48;;
11287;SDS011;5700;50.996;7.044;2022-09-16T03:44:02;5.32;;;1.35;;
11287;SDS011;5700;50.996;7.044;2022-09-16T03:47:03;6.47;;;2.03;;
11287;SDS011;5700;50.996;7.044;2022-09-16T03:50:07;5.00;;;1.35;;
11287;SDS011;5700;50.996;7.044;2022-09-16T03:53:09;5.00;;;1.20;;
11287;SDS011;5700;50.996;7.044;2022-09-16T03:56:10;3.67;;;1.33;;
11287;SDS011;5700;50.996;7.044;2022-09-16T03:59:12;3.30;;;1.48;;
11287;SDS011;5700;50.996;7.044;2022-09-16T04:02:13;4.57;;;1.38;;
11287;SDS011;5700;50.996;7.044;2022-09-16T04:05:16;4.60;;;1.40;;
11287;SDS011;5700;50.996;7.044;2022-09-16T04:08:17;3.63;;;1.67;;
11287;SDS011;5700;50.996;7.044;2022-09-16T04:11:18;3.72;;;1.20;;
11287;SDS011;5700;50.996;7.044;2022-09-16T04:14:20;4.57;;;1.38;;
11287;SDS011;5700;50.996;7.044;2022-09-16T04:17:22;6.05;;;1.30;;
11287;SDS011;5700;50.996;7.044;2022-09-16T04:20:27;7.72;;;1.75;;
11287;SDS011;5700;50.996;7.044;2022-09-16T04:23:29;4.10;;;1.33;;
11287;SDS011;5700;50.996;7.044;2022-09-16T04:26:30;2.88;;;1.10;;
11287;SDS011;5700;50.996;7.044;2022-09-16T04:29:32;4.60;;;1.27;;
11287;SDS011;5700;50.996;7.044;2022-09-16T04:32:33;5.60;;;1.85;;
11287;SDS011;5700;50.996;7.044;2022-09-16T04:35:36;4.00;;;1.20;;
11287;SDS011;5700;50.996;7.044;2022-09-16T04:38:37;8.38;;;1.77;;
11287;SDS011;5700;50.996;7.044;2022-09-16T04:41:40;5.47;;;1.45;;
11287;SDS011;5700;50.996;7.044;2022-09-16T04:44:41;6.70;;;1.40;;
11287;SDS011;5700;50.996;7.044;2022-09-16T04:47:43;3.90;;;1.30;;
11287;SDS011;5700;50.996;7.044;2022-09-16T04:50:46;2.65;;;1.25;;
11287;SDS011;5700;50.996;7.044;2022-09-16T04:53:48;6.28;;;1.38;;
11287;SDS011;5700;50.996;7.044;2022-09-16T04:56:49;5.82;;;2.70;;
11287;SDS011;5700;50.996;7.044;2022-09-16T04:59:51;6.30;;;2.78;;
11287;SDS011;5700;50.996;7.044;2022-09-16T05:02:52;6.53;;;2.58;;
11287;SDS011;5700;50.996;7.044;2022-09-16T05:06:03;4.32;;;2.70;;
11287;SDS011;5700;50.996;7.044;2022-09-16T05:09:06;7.13;;;3.13;;
11287;SDS011;5700;50.996;7.044;2022-09-16T05:12:08;9.23;;;3.03;;
11287;SDS011;5700;50.996;7.044;2022-09-16T05:15:10;4.93;;;2.50;;
11287;SDS011;5700;50.996;7.044;2022-09-16T05:18:11;4.82;;;2.40;;
11287;SDS011;5700;50.996;7.044;2022-09-16T05:21:15;7.18;;;2.78;;
11287;SDS011;5700;50.996;7.044;2022-09-16T05:24:17;6.47;;;2.90;;
11287;SDS011;5700;50.996;7.044;2022-09-16T05:27:19;4.97;;;2.80;;
11287;SDS011;5700;50.996;7.044;2022-09-16T05:30:21;5.28;;;2.85;;
11287;SDS011;5700;50.996;7.044;2022-09-16T05:33:22;4.47;;;2.40;;
11287;SDS011;5700;50.996;7.044;2022-09-16T05:36:25;9.40;;;3.55;;
11287;SDS011;5700;50.996;7.044;2022-09-16T05:39:28;6.55;;;3.78;;
11287;SDS011;5700;50.996;7.044;2022-09-16T05:42:29;9.45;;;3.15;;
11287;SDS011;5700;50.996;7.044;2022-09-16T05:45:30;6.70;;;3.38;;
11287;SDS011;5700;50.996;7.044;2022-09-16T05:48:32;8.70;;;3.70;;
11287;SDS011;5700;50.996;7.044;2022-09-16T05:51:36;7.78;;;3.22;;
11287;SDS011;5700;50.996;7.044;2022-09-16T05:54:38;5.50;;;3.20;;
11287;SDS011;5700;50.996;7.044;2022-09-16T05:57:40;5.43;;;2.95;;
11287;SDS011;5700;50.996;7.044;2022-09-16T06:00:41;9.88;;;2.35;;
11287;SDS011;5700;50.996;7.044;2022-09-16T06:03:43;10.07;;;2.42;;
11287;SDS011;5700;50.996;7.044;2022-09-16T06:06:47;4.88;;;2.15;;
11287;SDS011;5700;50.996;7.044;2022-09-16T06:09:48;3.75;;;2.17;;
11287;SDS011;5700;50.996;7.044;2022-09-16T06:12:50;4.60;;;2.35;;
11287;SDS011;5700;50.996;7.044;2022-09-16T06:15:51;6.70;;;3.15;;
11287;SDS011;5700;50.996;7.044;2022-09-16T06:18:54;5.38;;;3.33;;
11287;SDS011;5700;50.996;7.044;2022-09-16T06:21:57;8.40;;;3.45;;
11287;SDS011;5700;50.996;7.044;2022-09-16T06:24:59;8.52;;;3.25;;
11287;SDS011;5700;50.996;7.044;2022-09-16T06:28:00;6.03;;;3.15;;
11287;SDS011;5700;50.996;7.044;2022-09-16T06:31:03;8.52;;;2.65;;
11287;SDS011;5700;50.996;7.044;2022-09-16T06:34:07;5.80;;;2.40;;
11287;SDS011;5700;50.996;7.044;2022-09-16T06:37:13;4.32;;;1.85;;
11287;SDS011;5700;50.996;7.044;2022-09-16T06:40:14;6.13;;;2.05;;
11287;SDS011;5700;50.996;7.044;2022-09-16T06:43:16;5.45;;;1.90;;
11287;SDS011;5700;50.996;7.044;2022-09-16T06:46:18;5.38;;;1.73;;
11287;SDS011;5700;50.996;7.044;2022-09-16T06:49:22;3.17;;;1.27;;
11287;SDS011;5700;50.996;7.044;2022-09-16T06:52:25;3.78;;;1.05;;
11287;SDS011;5700;50.996;7.044;2022-09-16T06:55:27;5.85;;;1.13;;
11287;SDS011;5700;50.996;7.044;2022-09-16T06:58:30;2.33;;;0.80;;
11287;SDS011;5700;50.996;7.044;2022-09-16T07:01:33;6.40;;;1.27;;
11287;SDS011;5700;50.996;7.044;2022-09-16T07:04:34;6.18;;;1.13;;
11287;SDS011;5700;50.996;7.044;2022-09-16T07:07:37;2.30;;;0.82;;
11287;SDS011;5700;50.996;7.044;2022-09-16T07:10:38;5.95;;;1.33;;
11287;SDS011;5700;50.996;7.044;2022-09-16T07:13:40;1.42;;;0.70;;
11287;SDS011;5700;50.996;7.044;2022-09-16T07:16:42;5.65;;;1.05;;
11287;SDS011;5700;50.996;7.044;2022-09-16T07:19:43;3.53;;;0.80;;
11287;SDS011;5700;50.996;7.044;2022-09-16T07:22:46;4.95;;;1.40;;
11287;SDS011;5700;50.996;7.044;2022-09-16T07:25:58;5.18;;;1.13;;
11287;SDS011;5700;50.996;7.044;2022-09-16T07:29:00;7.00;;;1.67;;
11287;SDS011;5700;50.996;7.044;2022-09-16T07:32:03;7.25;;;1.40;;
11287;SDS011;5700;50.996;7.044;2022-09-16T07:35:05;2.85;;;1.10;;
11287;SDS011;5700;50.996;7.044;2022-09-16T07:38:07;3.50;;;0.95;;
11287;SDS011;5700;50.996;7.044;2022-09-16T07:41:10;4.35;;;0.98;;
11287;SDS011;5700;50.996;7.044;2022-09-16T07:44:13;5.63;;;1.15;;
11287;SDS011;5700;50.996;7.044;2022-09-16T07:47:16;3.13;;;0.80;;
11287;SDS011;5700;50.996;7.044;2022-09-16T07:50:17;3.58;;;1.00;;
11287;SDS011;5700;50.996;7.044;2022-09-16T07:53:20;2.50;;;0.80;;
11287;SDS011;5700;50.996;7.044;2022-09-16T07:56:22;3.72;;;0.90;;
11287;SDS011;5700;50.996;7.044;2022-09-16T07:59:25;6.30;;;1.00;;
11287;SDS011;5700;50.996;7.044;2022-09-16T08:02:26;2.90;;;1.05;;
11287;SDS011;5700;50.996;7.044;2022-09-16T08:05:27;7.38;;;1.02;;
11287;SDS011;5700;50.996;7.044;2022-09-16T08:08:30;4.68;;;1.05;;
11287;SDS011;5700;50.996;7.044;2022-09-16T08:11:32;5.32;;;1.17;;
11287;SDS011;5700;50.996;7.044;2022-09-16T08:14:33;5.22;;;1.05;;
11287;SDS011;5700;50.996;7.044;2022-09-16T08:17:35;3.33;;;1.08;;
11287;SDS011;5700;50.996;7.044;2022-09-16T08:20:36;4.95;;;1.20;;
11287;SDS011;5700;50.996;7.044;2022-09-16T08:23:39;2.25;;;0.88;;
11287;SDS011;5700;50.996;7.044;2022-09-16T08:26:41;3.38;;;0.90;;
11287;SDS011;5700;50.996;7.044;2022-09-16T08:29:42;7.05;;;1.27;;
11287;SDS011;5700;50.996;7.044;2022-09-16T08:32:43;4.72;;;0.88;;
11287;SDS011;5700;50.996;7.044;2022-09-16T08:35:45;1.98;;;0.98;;
11287;SDS011;5700;50.996;7.044;2022-09-16T08:38:48;5.75;;;1.20;;
11287;SDS011;5700;50.996;7.044;2022-09-16T08:41:58;3.65;;;1.05;;
11287;SDS011;5700;50.996;7.044;2022-09-16T08:45:16;3.50;;;0.68;;
11287;SDS011;5700;50.996;7.044;2022-09-16T08:48:23;3.95;;;0.95;;
11287;SDS011;5700;50.996;7.044;2022-09-16T08:51:29;3.92;;;0.75;;
11287;SDS011;5700;50.996;7.044;2022-09-16T08:54:35;5.03;;;1.42;;
11287;SDS011;5700;50.996;7.044;2022-09-16T08:57:39;4.57;;;1.05;;
11287;SDS011;5700;50.996;7.044;2022-09-16T09:00:42;2.72;;;0.80;;
11287;SDS011;5700;50.996;7.044;2022-09-16T09:03:45;1.52;;;0.73;;
11287;SDS011;5700;50.996;7.044;2022-09-16T09:06:52;2.08;;;0.82;;
11287;SDS011;5700;50.996;7.044;2022-09-16T09:10:00;2.83;;;0.85;;
11287;SDS011;5700;50.996;7.044;2022-09-16T09:13:08;4.10;;;1.23;;
11287;SDS011;5700;50.996;7.044;2022-09-16T09:16:19;1.75;;;0.90;;
11287;SDS011;5700;50.996;7.044;2022-09-16T09:19:28;1.60;;;0.70;;
11287;SDS011;5700;50.996;7.044;2022-09-16T09:22:40;2.47;;;0.90;;
11287;SDS011;5700;50.996;7.044;2022-09-16T09:25:52;3.78;;;0.80;;
11287;SDS011;5700;50.996;7.044;2022-09-16T09:29:03;5.38;;;0.80;;
11287;SDS011;5700;50.996;7.044;2022-09-16T09:32:15;4.57;;;0.73;;
11287;SDS011;5700;50.996;7.044;2022-09-16T09:35:22;2.03;;;0.43;;
11287;SDS011;5700;50.996;7.044;2022-09-16T09:38:31;2.70;;;0.60;;
11287;SDS011;5700;50.996;7.044;2022-09-16T09:41:42;4.05;;;0.85;;
11287;SDS011;5700;50.996;7.044;2022-09-16T09:44:47;2.42;;;0.85;;
11287;SDS011;5700;50.996;7.044;2022-09-16T09:47:53;1.98;;;0.50;;
11287;SDS011;5700;50.996;7.044;2022-09-16T09:50:57;4.47;;;0.73;;
11287;SDS011;5700;50.996;7.044;2022-09-16T09:54:02;1.73;;;0.40;;
11287;SDS011;5700;50.996;7.044;2022-09-16T09:57:10;2.83;;;0.65;;
11287;SDS011;5700;50.996;7.044;2022-09-16T10:00:16;4.53;;;0.90;;
11287;SDS011;5700;50.996;7.044;2022-09-16T10:03:20;4.00;;;1.00;;
11287;SDS011;5700;50.996;7.044;2022-09-16T10:06:23;1.67;;;0.50;;
11287;SDS011;5700;50.996;7.044;2022-09-16T10:09:27;0.70;;;0.40;;
11287;SDS011;5700;50.996;7.044;2022-09-16T10:12:31;2.88;;;0.70;;
11287;SDS011;5700;50.996;7.044;2022-09-16T10:15:33;1.63;;;0.60;;
11287;SDS011;5700;50.996;7.044;2022-09-16T10:18:34;2.25;;;0.50;;
11287;SDS011;5700;50.996;7.044;2022-09-16T10:21:38;2.33;;;0.68;;
11287;SDS011;5700;50.996;7.044;2022-09-16T10:24:41;2.80;;;0.70;;
11287;SDS011;5700;50.996;7.044;2022-09-16T10:27:52;2.15;;;0.50;;
11287;SDS011;5700;50.996;7.044;2022-09-16T10:30:55;2.42;;;0.57;;
11287;SDS011;5700;50.996;7.044;2022-09-16T10:33:58;8.68;;;0.95;;
11287;SDS011;5700;50.996;7.044;2022-09-16T10:37:02;1.58;;;0.80;;
11287;SDS011;5700;50.996;7.044;2022-09-16T10:40:05;3.20;;;1.00;;
11287;SDS011;5700;50.996;7.044;2022-09-16T10:43:17;0.93;;;0.50;;
11287;SDS011;5700;50.996;7.044;2022-09-16T10:46:19;8.77;;;0.70;;
11287;SDS011;5700;50.996;7.044;2022-09-16T10:49:22;2.25;;;0.57;;
11287;SDS011;5700;50.996;7.044;2022-09-16T10:52:27;5.15;;;0.85;;
11287;SDS011;5700;50.996;7.044;2022-09-16T10:55:30;1.67;;;0.63;;
11287;SDS011;5700;50.996;7.044;2022-09-16T10:58:35;5.45;;;0.93;;
11287;SDS011;5700;50.996;7.044;2022-09-16T11:01:41;3.13;;;0.80;;
11287;SDS011;5700;50.996;7.044;2022-09-16T11:04:48;1.30;;;0.22;;
11287;SDS011;5700;50.996;7.044;2022-09-16T11:07:56;2.65;;;0.80;;
11287;SDS011;5700;50.996;7.044;2022-09-16T11:11:04;3.65;;;0.50;;
11287;SDS011;5700;50.996;7.044;2022-09-16T11:14:10;1.33;;;0.73;;
11287;SDS011;5700;50.996;7.044;2022-09-16T11:17:21;4.00;;;0.60;;
11287;SDS011;5700;50.996;7.044;2022-09-16T11:20:43;5.15;;;0.80;;
11287;SDS011;5700;50.996;7.044;2022-09-16T11:23:54;3.35;;;0.60;;
11287;SDS011;5700;50.996;7.044;2022-09-16T11:27:04;2.45;;;0.47;;
11287;SDS011;5700;50.996;7.044;2022-09-16T11:30:12;2.53;;;0.50;;
11287;SDS011;5700;50.996;7.044;2022-09-16T11:33:16;2.95;;;0.73;;
11287;SDS011;5700;50.996;7.044;2022-09-16T11:36:29;3.90;;;0.68;;
11287;SDS011;5700;50.996;7.044;2022-09-16T11:39:42;1.40;;;0.40;;
11287;SDS011;5700;50.996;7.044;2022-09-16T11:42:49;1.05;;;0.20;;
11287;SDS011;5700;50.996;7.044;2022-09-16T11:45:55;1.85;;;0.32;;
11287;SDS011;5700;50.996;7.044;2022-09-16T11:49:04;0.75;;;0.30;;
11287;SDS011;5700;50.996;7.044;2022-09-16T11:52:20;3.33;;;0.35;;
11287;SDS011;5700;50.996;7.044;2022-09-16T11:55:35;0.90;;;0.30;;
11287;SDS011;5700;50.996;7.044;2022-09-16T11:58:42;1.17;;;0.40;;
11287;SDS011;5700;50.996;7.044;2022-09-16T12:01:47;0.30;;;0.20;;
11287;SDS011;5700;50.996;7.044;2022-09-16T12:04:52;0.63;;;0.20;;
11287;SDS011;5700;50.996;7.044;2022-09-16T12:08:00;0.40;;;0.30;;
11287;SDS011;5700;50.996;7.044;2022-09-16T12:11:07;2.03;;;0.43;;
11287;SDS011;5700;50.996;7.044;2022-09-16T12:14:17;1.83;;;0.55;;
11287;SDS011;5700;50.996;7.044;2022-09-16T12:17:22;0.85;;;0.50;;
11287;SDS011;5700;50.996;7.044;2022-09-16T12:20:26;3.97;;;0.50;;
11287;SDS011;5700;50.996;7.044;2022-09-16T12:23:30;0.60;;;0.35;;
11287;SDS011;5700;50.996;7.044;2022-09-16T12:26:35;3.08;;;0.50;;
11287;SDS011;5700;50.996;7.044;2022-09-16T12:29:40;3.67;;;0.70;;
11287;SDS011;5700;50.996;7.044;2022-09-16T12:32:48;4.10;;;0.68;;
11287;SDS011;5700;50.996;7.044;2022-09-16T12:35:56;7.47;;;0.90;;
11287;SDS011;5700;50.996;7.044;2022-09-16T12:38:59;2.63;;;0.77;;
11287;SDS011;5700;50.996;7.044;2022-09-16T12:42:10;5.20;;;1.15;;
11287;SDS011;5700;50.996;7.044;2022-09-16T12:45:33;3.10;;;0.60;;
11287;SDS011;5700;50.996;7.044;2022-09-16T12:48:50;0.93;;;0.50;;
11287;SDS011;5700;50.996;7.044;2022-09-16T12:52:11;2.80;;;0.65;;
11287;SDS011;5700;50.996;7.044;2022-09-16T12:55:29;1.30;;;0.50;;
11287;SDS011;5700;50.996;7.044;2022-09-16T12:58:42;2.88;;;0.60;;
11287;SDS011;5700;50.996;7.044;2022-09-16T13:01:50;0.88;;;0.45;;
11287;SDS011;5700;50.996;7.044;2022-09-16T13:04:55;1.38;;;0.73;;
11287;SDS011;5700;50.996;7.044;2022-09-16T13:07:59;0.85;;;0.50;;
11287;SDS011;5700;50.996;7.044;2022-09-16T13:11:04;4.13;;;1.35;;
11287;SDS011;5700;50.996;7.044;2022-09-16T13:14:13;4.70;;;2.25;;
11287;SDS011;5700;50.996;7.044;2022-09-16T13:17:26;6.05;;;2.70;;
11287;SDS011;5700;50.996;7.044;2022-09-16T13:20:30;3.65;;;1.67;;
11287;SDS011;5700;50.996;7.044;2022-09-16T13:23:33;1.77;;;1.30;;
11287;SDS011;5700;50.996;7.044;2022-09-16T13:26:41;3.00;;;1.20;;
11287;SDS011;5700;50.996;7.044;2022-09-16T13:29:43;2.70;;;0.73;;
11287;SDS011;5700;50.996;7.044;2022-09-16T13:32:55;2.13;;;0.52;;
11287;SDS011;5700;50.996;7.044;2022-09-16T13:36:11;1.77;;;0.47;;
11287;SDS011;5700;50.996;7.044;2022-09-16T13:39:26;1.95;;;0.70;;
11287;SDS011;5700;50.996;7.044;2022-09-16T13:42:28;2.95;;;0.77;;
11287;SDS011;5700;50.996;7.044;2022-09-16T13:45:31;1.83;;;0.93;;
11287;SDS011;5700;50.996;7.044;2022-09-16T13:48:35;1.50;;;1.05;;
11287;SDS011;5700;50.996;7.044;2022-09-16T13:51:42;1.60;;;0.60;;
11287;SDS011;5700;50.996;7.044;2022-09-16T13:54:46;3.72;;;0.95;;
11287;SDS011;5700;50.996;7.044;2022-09-16T13:57:53;1.48;;;0.90;;
11287;SDS011;5700;50.996;7.044;2022-09-16T14:01:01;1.60;;;0.70;;
11287;SDS011;5700;50.996;7.044;2022-09-16T14:04:06;2.00;;;1.05;;
11287;SDS011;5700;50.996;7.044;2022-09-16T14:07:16;4.05;;;1.00;;
11287;SDS011;5700;50.996;7.044;2022-09-16T14:10:30;2.47;;;0.70;;
11287;SDS011;5700;50.996;7.044;2022-09-16T14:13:37;0.90;;;0.63;;
11287;SDS011;5700;50.996;7.044;2022-09-16T14:16:41;3.22;;;0.60;;
11287;SDS011;5700;50.996;7.044;2022-09-16T14:19:43;0.95;;;0.57;;
11287;SDS011;5700;50.996;7.044;2022-09-16T14:22:48;3.95;;;0.75;;
11287;SDS011;5700;50.996;7.044;2022-09-16T14:26:08;3.30;;;0.77;;
11287;SDS011;5700;50.996;7.044;2022-09-16T14:29:11;1.45;;;0.70;;
11287;SDS011;5700;50.996;7.044;2022-09-16T14:32:12;3.30;;;0.70;;
11287;SDS011;5700;50.996;7.044;2022-09-16T14:35:16;2.20;;;0.63;;
11287;SDS011;5700;50.996;7.044;2022-09-16T14:38:21;2.42;;;0.70;;
11287;SDS011;5700;50.996;7.044;2022-09-16T14:41:30;1.85;;;0.85;;
11287;SDS011;5700;50.996;7.044;2022-09-16T14:44:33;2.72;;;1.10;;
11287;SDS011;5700;50.996;7.044;2022-09-16T14:47:37;3.10;;;1.20;;
11287;SDS011;5700;50.996;7.044;2022-09-16T14:50:40;1.75;;;1.23;;
11287;SDS011;5700;50.996;7.044;2022-09-16T14:53:51;3.35;;;1.23;;
11287;SDS011;5700;50.996;7.044;2022-09-16T14:56:55;2.42;;;1.05;;
11287;SDS011;5700;50.996;7.044;2022-09-16T14:59:58;2.50;;;1.08;;
11287;SDS011;5700;50.996;7.044;2022-09-16T15:03:03;2.47;;;0.93;;
11287;SDS011;5700;50.996;7.044;2022-09-16T15:06:10;2.53;;;1.15;;
11287;SDS011;5700;50.996;7.044;2022-09-16T15:09:18;4.00;;;1.08;;
11287;SDS011;5700;50.996;7.044;2022-09-16T15:12:22;4.72;;;1.23;;
11287;SDS011;5700;50.996;7.044;2022-09-16T15:15:26;3.95;;;1.30;;
11287;SDS011;5700;50.996;7.044;2022-09-16T15:18:29;2.03;;;1.15;;
11287;SDS011;5700;50.996;7.044;2022-09-16T15:21:33;2.65;;;0.93;;
11287;SDS011;5700;50.996;7.044;2022-09-16T15:24:38;3.95;;;0.70;;
11287;SDS011;5700;50.996;7.044;2022-09-16T15:27:40;3.78;;;1.00;;
11287;SDS011;5700;50.996;7.044;2022-09-16T15:30:43;2.65;;;0.50;;
11287;SDS011;5700;50.996;7.044;2022-09-16T15:33:49;2.03;;;0.50;;
11287;SDS011;5700;50.996;7.044;2022-09-16T15:36:52;2.85;;;0.40;;
11287;SDS011;5700;50.996;7.044;2022-09-16T15:39:56;2.53;;;0.43;;
11287;SDS011;5700;50.996;7.044;2022-09-16T15:43:12;2.80;;;0.80;;
11287;SDS011;5700;50.996;7.044;2022-09-16T15:46:18;0.90;;;0.57;;
11287;SDS011;5700;50.996;7.044;2022-09-16T15:49:20;3.45;;;0.77;;
11287;SDS011;5700;50.996;7.044;2022-09-16T15:52:24;3.83;;;0.50;;
11287;SDS011;5700;50.996;7.044;2022-09-16T15:55:28;2.63;;;0.73;;
11287;SDS011;5700;50.996;7.044;2022-09-16T15:58:34;2.38;;;0.57;;
11287;SDS011;5700;50.996;7.044;2022-09-16T16:01:40;2.90;;;0.93;;
11287;SDS011;5700;50.996;7.044;2022-09-16T16:04:47;3.58;;;0.82;;
11287;SDS011;5700;50.996;7.044;2022-09-16T16:07:49;2.05;;;0.80;;
11287;SDS011;5700;50.996;7.044;2022-09-16T16:11:04;3.30;;;0.85;;
11287;SDS011;5700;50.996;7.044;2022-09-16T16:14:06;4.35;;;0.77;;
11287;SDS011;5700;50.996;7.044;2022-09-16T16:17:08;0.90;;;0.40;;
11287;SDS011;5700;50.996;7.044;2022-09-16T16:20:11;4.43;;;0.68;;
11287;SDS011;5700;50.996;7.044;2022-09-16T16:23:13;1.90;;;0.73;;
11287;SDS011;5700;50.996;7.044;2022-09-16T16:26:16;2.42;;;0.80;;
11287;SDS011;5700;50.996;7.044;2022-09-16T16:29:17;2.55;;;0.80;;
11287;SDS011;5700;50.996;7.044;2022-09-16T16:32:19;2.38;;;0.70;;
11287;SDS011;5700;50.996;7.044;2022-09-16T16:35:20;3.08;;;0.90;;
11287;SDS011;5700;50.996;7.044;2022-09-16T16:38:22;3.92;;;0.80;;
11287;SDS011;5700;50.996;7.044;2022-09-16T16:41:24;2.00;;;0.50;;
11287;SDS011;5700;50.996;7.044;2022-09-16T16:44:26;4.20;;;0.85;;
11287;SDS011;5700;50.996;7.044;2022-09-16T16:47:27;5.43;;;1.35;;
11287;SDS011;5700;50.996;7.044;2022-09-16T16:50:29;1.98;;;0.90;;
11287;SDS011;5700;50.996;7.044;2022-09-16T16:53:30;3.47;;;1.25;;
11287;SDS011;5700;50.996;7.044;2022-09-16T16:56:33;3.55;;;1.10;;
11287;SDS011;5700;50.996;7.044;2022-09-16T16:59:34;4.55;;;1.13;;
11287;SDS011;5700;50.996;7.044;2022-09-16T17:02:36;6.00;;;1.20;;
11287;SDS011;5700;50.996;7.044;2022-09-16T17:05:37;3.65;;;1.30;;
11287;SDS011;5700;50.996;7.044;2022-09-16T17:08:39;3.63;;;0.73;;
11287;SDS011;5700;50.996;7.044;2022-09-16T17:11:50;2.30;;;0.70;;
11287;SDS011;5700;50.996;7.044;2022-09-16T17:14:52;3.97;;;0.80;;
11287;SDS011;5700;50.996;7.044;2022-09-16T17:17:54;3.60;;;0.80;;
11287;SDS011;5700;50.996;7.044;2022-09-16T17:20:59;4.75;;;0.95;;
11287;SDS011;5700;50.996;7.044;2022-09-16T17:24:01;3.05;;;0.82;;
11287;SDS011;5700;50.996;7.044;2022-09-16T17:27:04;3.25;;;1.20;;
11287;SDS011;5700;50.996;7.044;2022-09-16T17:30:06;3.50;;;1.02;;
11287;SDS011;5700;50.996;7.044;2022-09-16T17:33:08;3.42;;;1.10;;
11287;SDS011;5700;50.996;7.044;2022-09-16T17:36:10;4.65;;;0.88;;
11287;SDS011;5700;50.996;7.044;2022-09-16T17:39:13;4.82;;;1.20;;
11287;SDS011;5700;50.996;7.044;2022-09-16T17:42:18;3.47;;;0.85;;
11287;SDS011;5700;50.996;7.044;2022-09-16T17:45:19;2.15;;;0.90;;
11287;SDS011;5700;50.996;7.044;2022-09-16T17:48:20;2.97;;;0.80;;
11287;SDS011;5700;50.996;7.044;2022-09-16T17:51:22;3.10;;;0.90;;
11287;SDS011;5700;50.996;7.044;2022-09-16T17:54:24;3.80;;;0.80;;
11287;SDS011;5700;50.996;7.044;2022-09-16T17:57:26;6.45;;;0.90;;
11287;SDS011;5700;50.996;7.044;2022-09-16T18:00:28;1.50;;;0.82;;
11287;SDS011;5700;50.996;7.044;2022-09-16T18:03:29;2.45;;;0.85;;
11287;SDS011;5700;50.996;7.044;2022-09-16T18:06:31;5.82;;;1.05;;
11287;SDS011;5700;50.996;7.044;2022-09-16T18:09:34;2.25;;;1.42;;
11287;SDS011;5700;50.996;7.044;2022-09-16T18:12:37;1.58;;;0.93;;
11287;SDS011;5700;50.996;7.044;2022-09-16T18:15:38;4.75;;;1.20;;
11287;SDS011;5700;50.996;7.044;2022-09-16T18:18:40;5.75;;;1.58;;
11287;SDS011;5700;50.996;7.044;2022-09-16T18:21:42;3.92;;;0.93;;
11287;SDS011;5700;50.996;7.044;2022-09-16T18:24:44;4.18;;;1.00;;
11287;SDS011;5700;50.996;7.044;2022-09-16T18:27:46;1.75;;;0.70;;
11287;SDS011;5700;50.996;7.044;2022-09-16T18:30:59;7.00;;;0.82;;
11287;SDS011;5700;50.996;7.044;2022-09-16T18:34:01;1.58;;;0.50;;
11287;SDS011;5700;50.996;7.044;2022-09-16T18:37:02;3.40;;;0.70;;
11287;SDS011;5700;50.996;7.044;2022-09-16T18:40:04;2.92;;;0.70;;
11287;SDS011;5700;50.996;7.044;2022-09-16T18:43:07;3.22;;;0.70;;
11287;SDS011;5700;50.996;7.044;2022-09-16T18:46:09;4.60;;;0.98;;
11287;SDS011;5700;50.996;7.044;2022-09-16T18:49:12;2.00;;;0.57;;